createdAt,value
2022-09-22T00:39:16.870Z,7.97
2022-09-22T00:41:46.964Z,9.07
2022-09-22T00:44:42.544Z,8.18
2022-09-22T00:47:15.389Z,8.40
2022-09-22T00:49:54.438Z,9.52
2022-09-22T00:52:29.235Z,7.53
2022-09-22T00:55:00.051Z,7.82
2022-09-22T00:57:34.333Z,8.30
2022-09-22T01:00:05.025Z,7.90
2022-09-22T01:02:32.832Z,9.13
2022-09-22T01:05:02.901Z,8.85
2022-09-22T01:07:31.533Z,8.80
2022-09-22T01:10:00.807Z,9.82
2022-09-22T01:12:31.120Z,10.32
2022-09-22T01:23:40.575Z,9.45
2022-09-22T01:31:32.839Z,9.00
2022-09-22T01:45:20.640Z,10.70
2022-09-22T01:47:55.556Z,10.07
2022-09-22T01:53:24.376Z,9.88
2022-09-22T02:07:31.760Z,9.63
2022-09-22T02:10:02.210Z,9.90
2022-09-22T02:12:31.560Z,10.35
2022-09-22T02:23:03.669Z,10.93
2022-09-22T02:25:31.257Z,10.02
2022-09-22T02:28:00.988Z,9.73
2022-09-22T02:30:30.874Z,9.35
2022-09-22T02:33:01.385Z,11.10
2022-09-22T02:35:34.204Z,9.90
2022-09-22T02:38:14.482Z,9.40
2022-09-22T02:40:48.553Z,11.43
2022-09-22T02:43:27.258Z,10.57
2022-09-22T02:46:04.687Z,10.43
2022-09-22T02:48:40.871Z,10.23
2022-09-22T02:51:10.084Z,10.02
2022-09-22T02:53:40.103Z,9.90
2022-09-22T02:56:08.379Z,9.52
2022-09-22T02:58:36.588Z,8.93
2022-09-22T03:01:03.650Z,9.40
2022-09-22T03:03:31.353Z,9.80
2022-09-22T03:05:58.149Z,10.30
2022-09-22T03:08:27.113Z,9.55
2022-09-22T03:10:55.892Z,11.52
2022-09-22T03:13:22.734Z,11.65
2022-09-22T03:15:51.837Z,10.35
2022-09-22T03:21:01.330Z,10.77
2022-09-22T03:23:33.338Z,12.23
2022-09-22T03:26:00.297Z,11.55
2022-09-22T03:31:11.324Z,12.40
2022-09-22T03:33:41.876Z,13.13
2022-09-22T03:36:09.855Z,14.05
2022-09-22T03:38:37.433Z,14.25
2022-09-22T03:41:05.639Z,13.48
2022-09-22T03:43:34.876Z,13.45
2022-09-22T03:46:04.957Z,13.63
2022-09-22T03:48:32.784Z,13.70
2022-09-22T03:53:36.373Z,14.10
2022-09-22T03:56:14.010Z,12.48
2022-09-22T03:58:42.560Z,11.82
2022-09-22T04:06:28.116Z,14.20
2022-09-22T04:08:55.732Z,13.80
2022-09-22T04:13:58.930Z,14.07
2022-09-22T04:16:25.819Z,13.93
2022-09-22T04:18:52.954Z,12.05
2022-09-22T04:21:20.068Z,12.90
2022-09-22T04:23:47.870Z,13.90
2022-09-22T04:26:14.819Z,13.85
2022-09-22T04:31:32.145Z,14.02
2022-09-22T04:34:00.162Z,15.35
2022-09-22T04:36:29.160Z,14.48
2022-09-22T04:38:56.626Z,15.77
2022-09-22T04:41:23.584Z,15.82
2022-09-22T04:43:51.082Z,16.52
2022-09-22T04:46:17.959Z,17.55
2022-09-22T04:48:45.921Z,18.25
2022-09-22T04:51:13.993Z,20.08
2022-09-22T04:53:41.139Z,19.73
2022-09-22T04:56:08.407Z,21.25
2022-09-22T04:58:36.585Z,21.70
2022-09-22T05:01:06.243Z,21.02
2022-09-22T05:03:33.997Z,23.52
2022-09-22T05:06:01.038Z,23.58
2022-09-22T05:08:28.335Z,21.75
2022-09-22T05:10:57.903Z,20.48
2022-09-22T05:13:29.838Z,20.42
2022-09-22T05:15:59.775Z,22.20
2022-09-22T05:18:26.979Z,19.42
2022-09-22T05:20:54.180Z,20.88
2022-09-22T05:23:21.642Z,21.17
2022-09-22T05:25:48.970Z,19.60
2022-09-22T05:28:16.128Z,20.50
2022-09-22T05:30:43.651Z,19.58
2022-09-22T05:33:10.827Z,21.48
2022-09-22T05:35:41.207Z,21.40
2022-09-22T05:43:31.957Z,20.02
2022-09-22T05:51:18.417Z,20.35
2022-09-22T05:53:45.674Z,23.10
2022-09-22T05:56:14.961Z,17.45
2022-09-22T05:58:43.101Z,18.58
2022-09-22T06:01:10.138Z,22.77
2022-09-22T06:03:37.458Z,19.88
2022-09-22T06:06:04.432Z,19.23
2022-09-22T06:32:57.317Z,27.35
2022-09-22T06:59:39.473Z,13.98
2022-09-22T07:02:09.922Z,15.25
2022-09-22T07:04:37.371Z,13.23
2022-09-22T07:07:04.117Z,14.90
2022-09-22T07:09:32.265Z,11.52
2022-09-22T07:12:01.891Z,9.75
2022-09-22T07:14:32.281Z,11.40
2022-09-22T07:16:58.999Z,9.80
2022-09-22T07:19:26.033Z,8.60
2022-09-22T07:21:53.212Z,10.07
2022-09-22T07:24:19.917Z,8.90
2022-09-22T07:26:46.657Z,7.70
2022-09-22T07:29:17.212Z,7.20
2022-09-22T07:31:45.522Z,8.90
2022-09-22T07:34:15.512Z,7.53
2022-09-22T07:36:42.498Z,8.30
2022-09-22T07:39:14.406Z,6.13
2022-09-22T07:41:44.269Z,7.27
2022-09-22T07:44:32.185Z,7.20
2022-09-22T07:46:59.749Z,6.43
2022-09-22T07:49:28.023Z,7.97
2022-09-22T07:51:55.625Z,6.60
2022-09-22T07:54:26.433Z,7.33
2022-09-22T07:56:57.160Z,7.40
2022-09-22T07:59:25.007Z,7.73
2022-09-22T08:01:52.464Z,7.77
2022-09-22T08:04:23.103Z,7.23
2022-09-22T08:06:59.749Z,7.70
2022-09-22T08:09:26.633Z,7.33
2022-09-22T08:11:54.239Z,7.93
2022-09-22T08:14:23.758Z,6.60
2022-09-22T08:16:53.734Z,7.20
2022-09-22T08:19:23.101Z,7.70
2022-09-22T08:21:52.064Z,5.33
2022-09-22T08:24:23.113Z,4.90
2022-09-22T08:26:52.823Z,4.00
2022-09-22T08:29:20.555Z,3.30
2022-09-22T08:31:48.048Z,3.00
2022-09-22T08:34:16.709Z,3.67
2022-09-22T08:36:47.525Z,3.30
2022-09-22T08:39:16.016Z,3.13
2022-09-22T08:41:57.462Z,3.07
2022-09-22T08:44:37.784Z,2.30
2022-09-22T08:47:06.564Z,2.57
2022-09-22T08:50:06.233Z,3.70
2022-09-22T08:52:47.305Z,4.70
2022-09-22T08:55:23.118Z,2.57
2022-09-22T08:58:24.101Z,2.90
2022-09-22T09:01:25.030Z,1.80
2022-09-22T09:04:42.983Z,2.73
2022-09-22T09:07:24.291Z,2.90
2022-09-22T09:10:06.036Z,2.73
2022-09-22T09:13:20.199Z,2.13
2022-09-22T09:16:22.189Z,2.13
2022-09-22T09:19:01.253Z,1.60
2022-09-22T09:21:31.297Z,2.13
2022-09-22T09:26:51.193Z,2.00
2022-09-22T09:29:24.550Z,2.50
2022-09-22T09:31:55.771Z,2.43
2022-09-22T09:34:29.478Z,2.10
2022-09-22T09:37:08.660Z,2.37
2022-09-22T09:39:40.625Z,2.23
2022-09-22T09:42:21.584Z,2.40
2022-09-22T09:44:53.489Z,3.00
2022-09-22T09:47:36.602Z,2.47
2022-09-22T09:50:05.220Z,2.03
2022-09-22T09:52:37.142Z,2.60
2022-09-22T09:55:20.355Z,1.87
2022-09-22T09:58:11.708Z,1.43
2022-09-22T10:00:59.194Z,1.77
2022-09-22T10:03:29.954Z,1.13
2022-09-22T10:06:09.569Z,0.90
2022-09-22T10:08:45.834Z,1.17
2022-09-22T10:11:15.608Z,0.70
2022-09-22T10:13:46.320Z,1.20
2022-09-22T10:16:25.017Z,1.00
2022-09-22T10:19:03.768Z,0.70
2022-09-22T10:21:33.631Z,0.85
2022-09-22T10:24:01.239Z,0.70
2022-09-22T10:26:35.726Z,1.10
2022-09-22T10:29:18.866Z,0.90
2022-09-22T10:32:06.160Z,0.80
2022-09-22T10:34:42.157Z,0.90
2022-09-22T10:37:12.902Z,0.70
2022-09-22T10:39:53.497Z,0.90
2022-09-22T10:42:41.793Z,0.93
2022-09-22T10:45:20.148Z,0.90
2022-09-22T10:48:21.208Z,1.10
2022-09-22T10:51:07.325Z,1.00
2022-09-22T10:54:16.417Z,0.77
2022-09-22T10:56:49.789Z,1.27
2022-09-22T10:59:27.133Z,1.03
2022-09-22T11:02:22.532Z,0.75
2022-09-22T11:05:14.169Z,0.73
2022-09-22T11:08:20.181Z,1.00
2022-09-22T11:11:22.820Z,0.80
2022-09-22T11:14:04.455Z,1.23
2022-09-22T11:17:13.449Z,0.93
2022-09-22T11:20:01.712Z,0.83
2022-09-22T11:22:51.586Z,0.90
2022-09-22T11:25:36.650Z,0.70
2022-09-22T11:28:22.369Z,0.70
2022-09-22T11:30:54.647Z,0.53
2022-09-22T11:33:56.042Z,1.20
2022-09-22T11:36:42.668Z,0.60
2022-09-22T11:39:19.995Z,0.97
2022-09-22T11:41:56.302Z,0.70
2022-09-22T11:44:52.816Z,0.77
2022-09-22T11:47:36.831Z,0.93
2022-09-22T11:50:20.596Z,0.90
2022-09-22T11:53:13.895Z,0.73
2022-09-22T11:56:14.146Z,1.10
2022-09-22T11:58:43.173Z,0.90
2022-09-22T12:01:23.031Z,0.90
2022-09-22T12:03:56.896Z,0.80
2022-09-22T12:06:32.684Z,0.73
2022-09-22T12:09:13.209Z,0.90
2022-09-22T12:11:44.956Z,0.70
2022-09-22T12:14:16.147Z,0.60
2022-09-22T12:16:50.374Z,0.73
2022-09-22T12:19:44.779Z,1.00
2022-09-22T12:22:38.091Z,0.80
2022-09-22T12:25:21.151Z,0.80
2022-09-22T12:28:03.703Z,0.77
2022-09-22T12:30:32.148Z,0.80
2022-09-22T12:33:00.116Z,0.87
2022-09-22T12:35:31.782Z,1.10
2022-09-22T12:38:02.534Z,1.33
2022-09-22T12:40:36.468Z,0.87
2022-09-22T12:43:07.333Z,1.20
2022-09-22T12:45:40.029Z,1.00
2022-09-22T12:48:18.271Z,0.70
2022-09-22T12:50:46.708Z,1.00
2022-09-22T12:53:22.491Z,0.57
2022-09-22T12:55:50.674Z,1.40
2022-09-22T12:58:27.661Z,1.10
2022-09-22T13:00:57.384Z,1.23
2022-09-22T13:03:33.331Z,1.15
2022-09-22T13:06:23.639Z,1.10
2022-09-22T13:09:22.474Z,0.80
2022-09-22T13:12:14.967Z,1.08
2022-09-22T13:15:06.693Z,0.77
2022-09-22T13:17:51.139Z,1.05
2022-09-22T13:20:17.847Z,0.90
2022-09-22T13:22:45.353Z,0.85
2022-09-22T13:25:31.371Z,0.73
2022-09-22T13:28:08.981Z,1.10
2022-09-22T13:30:37.657Z,1.00
2022-09-22T13:33:04.966Z,1.00
2022-09-22T13:35:38.840Z,1.10
2022-09-22T13:38:06.059Z,0.73
2022-09-22T13:40:34.856Z,0.70
2022-09-22T13:43:07.472Z,0.73
2022-09-22T13:45:37.922Z,1.05
2022-09-22T13:48:24.162Z,0.60
2022-09-22T13:51:00.651Z,1.10
2022-09-22T13:53:27.626Z,0.60
2022-09-22T13:55:54.941Z,0.90
2022-09-22T13:58:44.560Z,0.65
2022-09-22T14:01:22.555Z,0.90
2022-09-22T14:03:52.261Z,0.90
2022-09-22T14:06:22.539Z,1.00
2022-09-22T14:08:51.402Z,0.90
2022-09-22T14:11:30.901Z,1.23
2022-09-22T14:14:02.700Z,0.90
2022-09-22T14:17:09.025Z,0.50
2022-09-22T14:20:03.743Z,0.87
2022-09-22T14:22:40.637Z,0.80
2022-09-22T14:25:22.731Z,0.60
2022-09-22T14:28:00.184Z,1.10
2022-09-22T14:30:33.630Z,0.60
2022-09-22T14:33:04.095Z,0.80
2022-09-22T14:35:36.368Z,0.73
2022-09-22T14:38:20.878Z,0.60
2022-09-22T14:40:56.047Z,0.65
2022-09-22T14:43:38.656Z,0.90
2022-09-22T14:46:34.878Z,0.77
2022-09-22T14:51:47.362Z,0.90
2022-09-22T14:54:16.620Z,0.70
2022-09-22T14:56:45.531Z,1.17
2022-09-22T14:59:37.483Z,0.97
2022-09-22T15:02:31.365Z,1.20
2022-09-22T15:05:01.200Z,1.00
2022-09-22T15:07:37.400Z,0.55
2022-09-22T15:10:23.213Z,0.80
2022-09-22T15:12:52.675Z,0.65
2022-09-22T15:15:32.021Z,0.73
2022-09-22T15:18:18.900Z,1.00
2022-09-22T15:20:57.760Z,0.82
2022-09-22T15:23:31.776Z,0.73
2022-09-22T15:26:06.207Z,1.73
2022-09-22T15:28:39.678Z,1.05
2022-09-22T15:31:07.517Z,0.88
2022-09-22T15:36:21.083Z,0.70
2022-09-22T15:38:48.704Z,1.63
2022-09-22T15:41:17.423Z,0.80
2022-09-22T15:43:44.564Z,0.70
2022-09-22T15:46:39.165Z,0.95
2022-09-22T15:49:21.365Z,0.80
2022-09-22T15:51:53.368Z,1.00
2022-09-22T15:54:23.348Z,1.20
2022-09-22T15:56:58.111Z,0.77
2022-09-22T15:59:32.059Z,0.82
2022-09-22T16:02:01.469Z,0.73
2022-09-22T16:04:33.782Z,0.80
2022-09-22T16:07:06.186Z,0.75
2022-09-22T16:09:36.435Z,0.77
2022-09-22T16:12:08.525Z,0.80
2022-09-22T16:14:41.758Z,1.08
2022-09-22T16:17:12.376Z,0.80
2022-09-22T16:19:39.250Z,0.80
2022-09-22T16:22:07.291Z,1.73
2022-09-22T16:24:34.063Z,0.93
2022-09-22T16:27:08.058Z,1.13
2022-09-22T16:29:40.851Z,0.82
2022-09-22T16:32:16.443Z,1.77
2022-09-22T16:34:45.241Z,1.25
2022-09-22T16:37:17.218Z,0.85
2022-09-22T16:39:48.733Z,1.27
2022-09-22T16:42:22.858Z,1.10
2022-09-22T16:44:57.928Z,1.40
2022-09-22T16:47:25.673Z,1.15
2022-09-22T16:49:56.672Z,2.00
2022-09-22T16:52:25.604Z,1.33
2022-09-22T16:55:01.156Z,1.88
2022-09-22T16:57:37.053Z,1.30
2022-09-22T17:00:04.214Z,1.17
2022-09-22T17:02:33.144Z,2.65
2022-09-22T17:05:04.326Z,1.55
2022-09-22T17:07:33.309Z,1.10
2022-09-22T17:10:06.140Z,1.10
2022-09-22T17:12:38.562Z,1.42
2022-09-22T17:15:09.559Z,1.48
2022-09-22T17:17:37.773Z,1.48
2022-09-22T17:20:05.266Z,5.13
2022-09-22T17:22:33.324Z,2.38
2022-09-22T17:25:01.334Z,2.35
2022-09-22T17:27:30.859Z,2.58
2022-09-22T17:30:00.336Z,2.10
2022-09-22T17:32:29.477Z,1.58
2022-09-22T17:34:56.477Z,2.20
2022-09-22T17:37:25.343Z,1.83
2022-09-22T17:39:53.277Z,2.03
2022-09-22T17:42:22.108Z,2.15
2022-09-22T17:44:48.912Z,1.80
2022-09-22T17:47:34.370Z,2.53
2022-09-22T17:50:22.363Z,2.08
2022-09-22T17:53:08.114Z,2.70
2022-09-22T17:55:36.061Z,2.67
2022-09-22T17:58:03.318Z,3.35
2022-09-22T18:00:30.610Z,3.63
2022-09-22T18:02:58.484Z,4.35
2022-09-22T18:05:27.095Z,6.50
2022-09-22T18:07:59.643Z,4.57
2022-09-22T18:10:30.977Z,3.60
2022-09-22T18:12:58.322Z,3.65
2022-09-22T18:15:28.757Z,3.42
2022-09-22T18:17:58.144Z,4.18
2022-09-22T18:20:26.490Z,4.90
2022-09-22T18:22:58.338Z,6.30
2022-09-22T18:25:25.949Z,5.13
2022-09-22T18:27:55.192Z,5.20
2022-09-22T18:30:22.872Z,9.68
2022-09-22T18:33:00.401Z,12.73
2022-09-22T18:35:29.245Z,10.27
2022-09-22T18:38:04.457Z,8.50
2022-09-22T18:40:31.991Z,7.13
2022-09-22T18:43:00.325Z,7.78
2022-09-22T18:45:27.952Z,9.07
2022-09-22T18:47:59.927Z,9.85
2022-09-22T18:50:27.858Z,7.60
2022-09-22T18:52:59.835Z,8.20
2022-09-22T18:55:27.639Z,8.23
2022-09-22T18:58:08.672Z,8.25
2022-09-22T19:00:41.480Z,7.90
2022-09-22T19:03:10.651Z,6.50
2022-09-22T19:05:37.513Z,7.13
2022-09-22T19:08:06.459Z,7.93
2022-09-22T19:10:39.493Z,6.93
2022-09-22T19:13:10.367Z,6.70
2022-09-22T19:15:40.467Z,7.25
2022-09-22T19:18:09.400Z,8.45
2022-09-22T19:20:38.934Z,7.20
2022-09-22T19:23:09.350Z,7.20
2022-09-22T19:25:39.620Z,5.75
2022-09-22T19:28:11.507Z,7.32
2022-09-22T19:30:41.622Z,7.47
2022-09-22T19:33:11.780Z,8.05
2022-09-22T19:35:44.519Z,7.90
2022-09-22T19:40:58.105Z,7.70
2022-09-22T19:43:29.064Z,8.13
2022-09-22T19:45:57.726Z,8.35
2022-09-22T19:48:26.404Z,7.70
2022-09-22T19:53:42.526Z,7.88
2022-09-22T19:56:10.934Z,6.90
2022-09-22T19:58:38.617Z,6.97
2022-09-22T20:01:11.275Z,7.82
2022-09-22T20:03:40.551Z,8.20
2022-09-22T20:06:08.545Z,8.48
2022-09-22T20:08:40.359Z,8.00
2022-09-22T20:11:25.488Z,8.48
2022-09-22T20:14:13.200Z,10.52
2022-09-22T20:16:46.010Z,8.35
2022-09-22T20:19:30.108Z,7.75
2022-09-22T20:22:23.122Z,9.40
2022-09-22T20:24:58.221Z,8.20
2022-09-22T20:27:34.125Z,7.80
2022-09-22T20:30:01.569Z,7.63
2022-09-22T20:32:35.270Z,7.50
2022-09-22T20:35:03.481Z,7.80
2022-09-22T20:37:32.438Z,8.13
2022-09-22T20:40:07.737Z,9.13
2022-09-22T20:42:36.515Z,8.15
2022-09-22T20:45:11.141Z,9.80
2022-09-22T20:47:41.460Z,9.18
2022-09-22T20:50:09.964Z,8.75
2022-09-22T20:52:40.022Z,11.02
2022-09-22T20:55:11.260Z,10.68
2022-09-22T20:57:41.354Z,9.45
2022-09-22T21:00:11.198Z,8.60
2022-09-22T21:02:41.308Z,9.23
2022-09-22T21:05:13.067Z,9.93
2022-09-22T21:07:40.382Z,9.68
2022-09-22T21:10:28.976Z,10.93
2022-09-22T21:13:04.889Z,9.35
2022-09-22T21:15:32.593Z,9.55
2022-09-22T21:18:04.127Z,10.45
2022-09-22T21:20:33.665Z,11.70
2022-09-22T21:23:05.444Z,11.57
2022-09-22T21:25:35.096Z,11.50
2022-09-22T21:28:03.563Z,11.38
2022-09-22T21:30:33.068Z,10.40
2022-09-22T21:33:01.911Z,10.85
2022-09-22T21:35:30.388Z,12.80
2022-09-22T21:38:01.585Z,14.35
2022-09-22T21:40:30.182Z,14.45
2022-09-22T21:42:58.099Z,13.70
2022-09-22T21:45:29.725Z,14.55
2022-09-22T21:47:59.848Z,15.18
2022-09-22T21:50:28.803Z,13.68
2022-09-22T21:52:58.898Z,13.98
2022-09-22T21:55:27.492Z,13.65
2022-09-22T21:57:57.256Z,11.85
2022-09-22T22:00:50.409Z,14.65
2022-09-22T22:03:32.158Z,13.93
2022-09-22T22:06:07.114Z,15.57
2022-09-22T22:08:46.614Z,15.15
2022-09-22T22:11:22.680Z,13.85
2022-09-22T22:13:54.163Z,13.80
2022-09-22T22:16:24.664Z,14.70
2022-09-22T22:18:51.970Z,14.15
2022-09-22T22:21:23.346Z,14.27
2022-09-22T22:23:57.606Z,14.93
2022-09-22T22:26:26.798Z,16.60
2022-09-22T22:29:06.060Z,16.20
2022-09-22T22:31:33.374Z,16.75
2022-09-22T22:34:00.281Z,13.95
2022-09-22T22:36:27.416Z,14.95
2022-09-22T22:39:04.995Z,15.40
2022-09-22T22:41:34.152Z,14.57
2022-09-22T22:44:09.303Z,14.75
2022-09-22T22:46:36.883Z,15.95
2022-09-22T22:49:07.701Z,12.88
2022-09-22T22:51:36.486Z,14.95
2022-09-22T22:54:08.757Z,14.00
2022-09-22T22:56:39.687Z,15.65
2022-09-22T22:59:09.757Z,15.77
2022-09-22T23:01:44.797Z,14.88
2022-09-22T23:04:12.357Z,14.45
2022-09-22T23:06:45.508Z,13.27
2022-09-22T23:09:15.523Z,14.27
2022-09-22T23:11:48.984Z,14.40
2022-09-22T23:14:31.356Z,15.00
2022-09-22T23:17:06.332Z,13.05
2022-09-22T23:19:36.506Z,12.15
2022-09-22T23:22:04.584Z,14.85
2022-09-22T23:24:37.663Z,14.93
2022-09-22T23:27:05.387Z,13.30
2022-09-22T23:29:36.410Z,14.57
2022-09-22T23:32:06.939Z,15.50
2022-09-22T23:34:35.322Z,14.70
2022-09-22T23:37:06.995Z,14.95
2022-09-22T23:39:35.087Z,15.65
2022-09-22T23:42:03.697Z,14.45
2022-09-22T23:44:30.420Z,14.45
2022-09-22T23:46:57.490Z,14.95
2022-09-22T23:49:24.974Z,13.38
2022-09-22T23:51:52.673Z,14.30
2022-09-22T23:54:21.789Z,16.42
2022-09-22T23:56:49.401Z,15.40
2022-09-22T23:59:18.147Z,16.35
